Mobile, Alabama
Current Conditions -  °F | °C
As of 6:53 PM on Friday 28 Nov 2014 (Local Time) from KBFM Reporting Station
Clear Clear  
Wind Chill:   Ceiling: Unl
Heat Index:   Visibility: 10mi
Dew Point:   Wind: 5mph
Humidity: 71%   Direction: 210°SSW
Pressure: 30.33"   Gusts: NA
Location:  30.69°N, 88.05°W
Report Text: KBFM 290053Z 21004KT 10SM CLR 08/03 A3033 RMK AO2 SLP268 T00830033
Loading
Personal Weather Stations






























Interactive Weather Map New forecast layout! Learn more

10-Day Weather Forecast

Advertisements
Track Severe Weather on mobile